Time;durP1;ratioP1;P1;durP2;ratioP2;P2;SDS_P1;SDS_P2;PMS_P1;PMS_P2;Temp;Humidity;BMP_temperature;BMP_pressure;BME280_temperature;BME280_humidity;BME280_pressure;Samples;Min_cycle;Max_cycle;Signal;HPM_P1;HPM_P2
2022/08/16 00:01:47;;;;;;;5.13;4.05;;;20.90;99.90;;;;;;5060085;28;20187;-84
2022/08/16 00:04:13;;;;;;;6.38;3.83;;;20.90;99.90;;;;;;5055941;28;20262;-86
2022/08/16 00:06:39;;;;;;;7.70;4.25;;;20.90;99.90;;;;;;5055710;28;20184;-84
2022/08/16 00:09:06;;;;;;;4.80;4.00;;;20.90;99.90;;;;;;5055557;28;20180;-84
2022/08/16 00:11:32;;;;;;;5.95;4.03;;;21.20;99.90;;;;;;5054884;28;20182;-84
2022/08/16 00:13:58;;;;;;;5.55;4.10;;;;;;;;;;5055289;28;20188;-85
2022/08/16 00:16:27;;;;;;;7.53;3.65;;;20.80;99.90;;;;;;5037734;28;20190;-84
2022/08/16 00:18:53;;;;;;;6.07;3.90;;;;;;;;;;5055218;28;20176;-85
2022/08/16 00:21:18;;;;;;;5.80;3.72;;;20.60;99.90;;;;;;5037033;28;20198;-86
2022/08/16 00:23:44;;;;;;;6.63;4.18;;;20.90;99.90;;;;;;5055017;28;20660;-84
2022/08/16 00:26:10;;;;;;;8.10;4.18;;;20.70;99.90;;;;;;5058223;28;20202;-84
2022/08/16 00:28:35;;;;;;;5.88;3.97;;;20.70;99.90;;;;;;5037588;28;20184;-83
2022/08/16 00:31:01;;;;;;;6.68;4.30;;;20.70;99.90;;;;;;5055091;28;20172;-83
2022/08/16 00:33:27;;;;;;;5.47;3.85;;;20.70;99.90;;;;;;5036877;28;20665;-85
2022/08/16 00:35:53;;;;;;;10.07;4.38;;;20.70;99.90;;;;;;5054421;28;20172;-84
2022/08/16 00:38:19;;;;;;;5.88;4.13;;;20.60;99.90;;;;;;5036205;28;20190;-87
2022/08/16 00:40:48;;;;;;;7.63;4.97;;;20.60;99.90;;;;;;5036592;28;20318;-84
2022/08/16 00:43:17;;;;;;;5.32;3.83;;;20.60;99.90;;;;;;5054477;28;20196;-84
2022/08/16 00:45:49;;;;;;;7.20;4.05;;;20.60;99.90;;;;;;5054837;28;20234;-83
2022/08/16 00:48:15;;;;;;;5.88;3.90;;;20.50;99.90;;;;;;5054629;28;20160;-83
2022/08/16 00:50:41;;;;;;;5.82;3.83;;;20.50;99.90;;;;;;5020470;28;20280;-83
2022/08/16 00:53:10;;;;;;;6.25;4.03;;;20.50;99.90;;;;;;5054432;28;20180;-84
2022/08/16 00:55:39;;;;;;;4.63;3.42;;;20.50;99.90;;;;;;5054339;28;20214;-84
2022/08/16 00:58:08;;;;;;;4.88;3.78;;;20.40;99.90;;;;;;5054172;28;20176;-84
2022/08/16 01:00:35;;;;;;;6.68;4.10;;;20.40;99.90;;;;;;5053996;28;20180;-84
2022/08/16 01:03:06;;;;;;;5.32;3.85;;;20.40;99.90;;;;;;5053936;28;20203;-85
2022/08/16 01:05:33;;;;;;;7.15;4.65;;;20.30;99.90;;;;;;5035782;28;20659;-84
2022/08/16 01:08:01;;;;;;;6.03;3.70;;;20.30;99.90;;;;;;5036066;28;20168;-84
2022/08/16 01:10:30;;;;;;;5.90;3.80;;;20.30;99.90;;;;;;5036146;28;20184;-84
2022/08/16 01:12:55;;;;;;;6.47;3.95;;;20.30;99.90;;;;;;5054014;28;20167;-84
2022/08/16 01:15:22;;;;;;;5.72;3.65;;;20.20;99.90;;;;;;5036280;28;20589;-85
2022/08/16 01:17:48;;;;;;;5.80;3.60;;;20.20;99.90;;;;;;5035923;28;20183;-85
2022/08/16 01:20:17;;;;;;;5.93;4.05;;;20.20;99.90;;;;;;5003428;28;20184;-84
2022/08/16 01:22:55;;;;;;;4.72;3.60;;;20.20;99.90;;;;;;5053585;28;20196;-85
2022/08/16 01:25:51;;;;;;;5.28;4.20;;;20.20;99.90;;;;;;5054060;28;20168;-84
2022/08/16 01:28:19;;;;;;;5.53;3.13;;;20.10;99.90;;;;;;5016314;28;20188;-85
2022/08/16 01:30:49;;;;;;;5.00;3.47;;;20.10;99.90;;;;;;5053913;28;20179;-84
2022/08/16 01:33:15;;;;;;;5.95;4.05;;;20.10;99.90;;;;;;5054163;28;20246;-85
2022/08/16 01:35:57;;;;;;;6.95;4.13;;;20.00;99.90;;;;;;5053540;28;20566;-85
2022/08/16 01:38:25;;;;;;;5.28;3.70;;;20.00;99.90;;;;;;5053669;28;20164;-85
2022/08/16 01:40:55;;;;;;;6.05;4.15;;;20.00;99.90;;;;;;5035911;28;20305;-84
2022/08/16 01:43:22;;;;;;;6.35;4.03;;;20.00;99.90;;;;;;5053440;28;20699;-84
2022/08/16 01:45:48;;;;;;;5.57;4.30;;;20.00;99.90;;;;;;5019669;28;20710;-84
2022/08/16 01:48:13;;;;;;;5.68;4.38;;;20.00;99.90;;;;;;5036211;28;20283;-84
2022/08/16 01:50:41;;;;;;;7.10;4.45;;;20.00;99.90;;;;;;5035989;28;20183;-84
2022/08/16 01:53:07;;;;;;;4.65;3.38;;;;;;;;;;5053404;28;20696;-84
2022/08/16 01:55:33;;;;;;;7.00;4.15;;;19.90;99.90;;;;;;5019765;28;20187;-85
2022/08/16 01:57:58;;;;;;;5.25;3.55;;;19.90;99.90;;;;;;5053516;28;20172;-84
2022/08/16 02:00:25;;;;;;;5.63;3.75;;;19.90;99.90;;;;;;5036025;28;20274;-84
2022/08/16 02:02:51;;;;;;;7.28;4.25;;;19.90;99.90;;;;;;5053349;28;20239;-84
2022/08/16 02:05:17;;;;;;;6.07;4.10;;;19.90;99.90;;;;;;5053226;28;20594;-85
2022/08/16 02:07:42;;;;;;;5.32;3.55;;;19.90;99.90;;;;;;5034819;28;20535;-85
2022/08/16 02:10:09;;;;;;;4.97;3.67;;;19.90;99.90;;;;;;5035648;28;20183;-85
2022/08/16 02:12:35;;;;;;;7.45;4.35;;;19.90;99.90;;;;;;5053651;28;20180;-84
2022/08/16 02:15:03;;;;;;;5.28;3.10;;;19.80;99.90;;;;;;5036005;28;20278;-84
2022/08/16 02:17:29;;;;;;;6.05;4.05;;;19.80;99.90;;;;;;5035683;28;20528;-84
2022/08/16 02:19:55;;;;;;;5.82;3.88;;;19.70;99.90;;;;;;5053827;28;20290;-85
2022/08/16 02:22:23;;;;;;;7.72;4.45;;;19.70;99.90;;;;;;5053412;28;20297;-85
2022/08/16 02:24:49;;;;;;;6.60;4.25;;;19.70;99.90;;;;;;5053592;28;20656;-85
2022/08/16 02:27:15;;;;;;;7.28;4.78;;;19.70;99.90;;;;;;5053272;28;20172;-84
2022/08/16 02:29:42;;;;;;;5.82;3.80;;;19.60;99.90;;;;;;5053332;28;20198;-84
2022/08/16 02:32:11;;;;;;;5.93;4.20;;;19.60;99.90;;;;;;5053600;28;20172;-85
2022/08/16 02:34:37;;;;;;;6.80;4.18;;;19.30;99.90;;;;;;5053251;28;20172;-85
2022/08/16 02:37:03;;;;;;;6.03;4.18;;;19.60;99.90;;;;;;5053924;28;20198;-84
2022/08/16 02:39:28;;;;;;;6.15;4.13;;;19.60;99.90;;;;;;5054010;28;20267;-84
2022/08/16 02:41:55;;;;;;;5.43;3.97;;;19.60;99.90;;;;;;5035843;28;20250;-84
2022/08/16 02:44:22;;;;;;;4.80;3.55;;;19.50;99.90;;;;;;5055179;28;20195;-84
2022/08/16 02:46:47;;;;;;;7.20;3.67;;;19.50;99.90;;;;;;5069764;28;20175;-84
2022/08/16 02:49:13;;;;;;;4.80;3.42;;;19.50;99.90;;;;;;5052577;28;20207;-85
2022/08/16 02:51:41;;;;;;;6.00;4.25;;;19.50;99.90;;;;;;5069413;28;20259;-87
2022/08/16 02:54:09;;;;;;;7.00;4.45;;;19.40;99.90;;;;;;5070489;28;20173;-83
2022/08/16 02:56:35;;;;;;;5.28;3.70;;;19.40;99.90;;;;;;5071679;28;20175;-84
2022/08/16 02:59:01;;;;;;;7.55;4.65;;;19.40;99.90;;;;;;5070989;28;20172;-85
2022/08/16 03:01:30;;;;;;;4.47;3.78;;;19.30;99.90;;;;;;5054458;28;20187;-85
2022/08/16 03:03:58;;;;;;;4.68;3.72;;;19.40;99.90;;;;;;5072563;28;20196;-83
2022/08/16 03:06:24;;;;;;;6.80;4.10;;;19.30;99.90;;;;;;5070058;28;20202;-83
2022/08/16 03:08:50;;;;;;;6.53;4.25;;;19.30;99.90;;;;;;5061983;28;20199;-83
2022/08/16 03:11:17;;;;;;;5.80;4.50;;;19.30;99.90;;;;;;5053044;28;20180;-84
2022/08/16 03:13:52;;;;;;;4.68;4.00;;;19.30;99.90;;;;;;5052330;28;20179;-85
2022/08/16 03:16:19;;;;;;;5.78;3.90;;;19.30;99.90;;;;;;5052786;28;20179;-84
2022/08/16 03:18:45;;;;;;;7.55;3.90;;;19.30;99.90;;;;;;5052747;28;20649;-85
2022/08/16 03:21:11;;;;;;;5.00;3.90;;;19.20;99.90;;;;;;5056309;28;20180;-84
2022/08/16 03:23:38;;;;;;;5.55;3.90;;;19.30;99.90;;;;;;5056356;28;20192;-84
2022/08/16 03:26:03;;;;;;;5.47;3.63;;;19.20;99.90;;;;;;5038443;28;20618;-85
2022/08/16 03:28:29;;;;;;;14.70;4.32;;;19.20;99.90;;;;;;5056216;28;20207;-85
2022/08/16 03:30:55;;;;;;;6.70;4.45;;;19.20;99.90;;;;;;5038342;28;20180;-86
2022/08/16 03:33:21;;;;;;;6.43;3.75;;;19.20;99.90;;;;;;5056565;28;20655;-85
2022/08/16 03:35:46;;;;;;;4.03;3.13;;;18.70;99.90;;;;;;5056160;28;20191;-85
2022/08/16 03:38:14;;;;;;;6.00;3.85;;;19.20;99.90;;;;;;5038015;28;20176;-86
2022/08/16 03:40:41;;;;;;;6.20;4.15;;;18.90;99.90;;;;;;5054929;28;20223;-86
2022/08/16 03:43:11;;;;;;;6.55;4.50;;;19.20;99.90;;;;;;5036893;28;20240;-86
2022/08/16 03:45:39;;;;;;;4.22;3.60;;;19.20;99.90;;;;;;5055212;28;20187;-85
2022/08/16 03:48:07;;;;;;;6.53;4.22;;;19.20;99.90;;;;;;5054521;28;20755;-85
2022/08/16 03:50:34;;;;;;;9.48;5.70;;;19.20;99.90;;;;;;5037003;28;20184;-86
2022/08/16 03:53:00;;;;;;;7.15;4.68;;;;;;;;;;5054644;28;20248;-87
2022/08/16 03:55:26;;;;;;;5.45;3.70;;;19.20;99.90;;;;;;5054625;28;20191;-85
2022/08/16 03:57:52;;;;;;;5.72;3.60;;;19.20;99.90;;;;;;5054617;28;20168;-86
2022/08/16 04:00:27;;;;;;;6.10;4.22;;;19.40;99.90;;;;;;5036253;28;20187;-85
2022/08/16 04:03:01;;;;;;;4.65;3.28;;;19.40;99.90;;;;;;5054497;28;20215;-86
2022/08/16 04:05:27;;;;;;;5.03;4.10;;;19.50;99.90;;;;;;5054325;28;20692;-85
2022/08/16 04:07:53;;;;;;;6.25;4.60;;;;;;;;;;5036790;28;20172;-85
2022/08/16 04:10:19;;;;;;;5.53;3.88;;;19.20;99.90;;;;;;5036560;28;20641;-85
2022/08/16 04:12:45;;;;;;;6.28;4.07;;;19.20;99.90;;;;;;5054523;28;20180;-85
2022/08/16 04:15:13;;;;;;;6.47;4.55;;;19.20;99.90;;;;;;5053985;28;20183;-84
2022/08/16 04:17:38;;;;;;;9.02;5.85;;;19.30;99.90;;;;;;5054668;28;20283;-85
2022/08/16 04:20:08;;;;;;;7.47;4.55;;;19.30;99.90;;;;;;5053812;28;20712;-84
2022/08/16 04:22:36;;;;;;;5.72;4.75;;;19.30;99.90;;;;;;5053909;28;20200;-84
2022/08/16 04:25:04;;;;;;;7.28;4.60;;;19.30;99.90;;;;;;5052515;28;20176;-84
2022/08/16 04:27:30;;;;;;;6.65;4.72;;;19.50;99.90;;;;;;5019121;28;20172;-85
2022/08/16 04:29:56;;;;;;;8.02;5.03;;;19.40;99.90;;;;;;5053795;28;20183;-83
2022/08/16 04:32:22;;;;;;;8.20;5.00;;;19.50;99.90;;;;;;5035068;28;20234;-85
2022/08/16 04:34:48;;;;;;;7.18;4.72;;;19.50;99.90;;;;;;5054160;28;20197;-84
2022/08/16 04:37:14;;;;;;;7.07;4.72;;;19.60;99.90;;;;;;5019375;28;20279;-84
2022/08/16 04:39:39;;;;;;;6.80;4.72;;;19.60;99.90;;;;;;5053295;28;20180;-83
2022/08/16 04:42:05;;;;;;;9.07;5.35;;;19.60;99.90;;;;;;5036212;28;20171;-86
2022/08/16 04:44:31;;;;;;;6.68;4.43;;;19.60;99.90;;;;;;5053298;28;20220;-84
2022/08/16 04:46:57;;;;;;;8.32;4.82;;;;;;;;;;5035805;28;20258;-84
2022/08/16 04:49:23;;;;;;;15.65;5.97;;;19.60;99.90;;;;;;5035561;28;20180;-84
2022/08/16 04:51:50;;;;;;;6.28;4.05;;;19.70;99.90;;;;;;5053194;28;20179;-84
2022/08/16 04:54:16;;;;;;;6.47;4.15;;;19.70;99.90;;;;;;5035767;28;20194;-84
2022/08/16 04:56:41;;;;;;;7.43;4.85;;;19.80;99.90;;;;;;5019673;28;20176;-84
2022/08/16 04:59:08;;;;;;;6.22;4.28;;;19.80;99.90;;;;;;5054520;28;20599;-83
2022/08/16 05:01:34;;;;;;;6.93;4.88;;;19.90;99.90;;;;;;5054484;28;20164;-83
2022/08/16 05:04:01;;;;;;;6.57;4.68;;;19.90;99.90;;;;;;5046249;28;20203;-85
2022/08/16 05:06:27;;;;;;;5.82;4.35;;;20.00;99.90;;;;;;5054818;28;20175;-84
2022/08/16 05:08:53;;;;;;;6.88;4.85;;;20.00;99.90;;;;;;5053984;28;20544;-88
2022/08/16 05:11:21;;;;;;;6.32;4.60;;;20.00;99.90;;;;;;5036909;28;20172;-84
2022/08/16 05:13:47;;;;;;;8.30;5.18;;;21.40;99.90;;;;;;5054390;28;20183;-85
2022/08/16 05:16:16;;;;;;;6.32;4.32;;;20.10;99.90;;;;;;5054137;28;20180;-84
2022/08/16 05:18:42;;;;;;;9.70;5.65;;;20.10;99.90;;;;;;5036322;28;20212;-83
2022/08/16 05:21:08;;;;;;;7.20;5.05;;;20.10;99.90;;;;;;5054098;28;20200;-83
2022/08/16 05:23:33;;;;;;;5.57;4.32;;;20.10;99.90;;;;;;5036521;28;20211;-83
2022/08/16 05:25:59;;;;;;;6.10;4.53;;;20.10;99.90;;;;;;5036051;28;20262;-85
2022/08/16 05:28:25;;;;;;;7.07;4.93;;;20.20;99.90;;;;;;5053911;28;20183;-85
2022/08/16 05:30:51;;;;;;;9.02;4.45;;;20.20;99.90;;;;;;5053460;28;20187;-86
2022/08/16 05:33:19;;;;;;;10.82;5.00;;;20.20;99.90;;;;;;5053509;28;20192;-83
2022/08/16 05:35:46;;;;;;;6.70;4.65;;;20.20;99.90;;;;;;5036288;28;20246;-85
2022/08/16 05:38:12;;;;;;;7.70;4.43;;;20.20;99.90;;;;;;5053234;28;20268;-85
2022/08/16 05:40:37;;;;;;;7.45;4.75;;;20.20;99.90;;;;;;5053395;28;20673;-85
2022/08/16 05:43:03;;;;;;;7.85;5.25;;;20.20;99.90;;;;;;5018386;28;20661;-85
2022/08/16 05:45:29;;;;;;;6.18;4.38;;;20.20;99.90;;;;;;5055137;28;20191;-85
2022/08/16 05:47:55;;;;;;;6.97;4.82;;;20.30;99.90;;;;;;5053725;28;20669;-84
2022/08/16 05:50:21;;;;;;;7.55;4.65;;;20.30;99.90;;;;;;5038145;28;20244;-84
2022/08/16 05:52:46;;;;;;;7.00;4.97;;;20.30;99.90;;;;;;5055263;28;20182;-84
2022/08/16 05:55:12;;;;;;;5.00;4.38;;;20.30;99.90;;;;;;5053189;28;20687;-85
2022/08/16 05:57:38;;;;;;;7.32;4.25;;;20.30;99.90;;;;;;5034927;28;20590;-86
2022/08/16 06:00:07;;;;;;;6.65;5.03;;;20.30;99.90;;;;;;5052826;28;20176;-85
2022/08/16 06:02:33;;;;;;;5.82;4.13;;;;;;;;;;5034703;28;20195;-84
2022/08/16 06:04:59;;;;;;;10.75;5.15;;;20.40;99.90;;;;;;5052883;28;20188;-85
2022/08/16 06:07:24;;;;;;;7.53;4.97;;;20.40;99.90;;;;;;5053197;28;20182;-85
2022/08/16 06:09:50;;;;;;;6.90;4.75;;;20.50;99.90;;;;;;5036442;28;20187;-85
2022/08/16 06:12:17;;;;;;;6.00;4.63;;;20.40;99.90;;;;;;5053516;28;20664;-85
2022/08/16 06:14:42;;;;;;;5.65;4.15;;;20.40;99.90;;;;;;5034915;28;20309;-85
2022/08/16 06:17:08;;;;;;;8.20;4.95;;;20.50;99.90;;;;;;5052246;28;20203;-86
2022/08/16 06:19:34;;;;;;;6.82;4.57;;;20.60;99.90;;;;;;5020265;28;20180;-85
2022/08/16 06:22:00;;;;;;;5.85;4.20;;;20.60;99.90;;;;;;5003368;28;20183;-85
2022/08/16 06:24:26;;;;;;;8.52;5.00;;;20.70;99.90;;;;;;5053182;28;20561;-85
2022/08/16 06:26:51;;;;;;;6.18;4.78;;;20.70;99.90;;;;;;5055155;28;20180;-85
2022/08/16 06:29:17;;;;;;;11.63;5.65;;;;;;;;;;5037536;28;20184;-87
2022/08/16 06:31:43;;;;;;;6.38;4.93;;;20.80;99.90;;;;;;5056852;28;20168;-87
2022/08/16 06:34:09;;;;;;;6.80;4.75;;;21.00;99.90;;;;;;5035131;28;20184;-85
2022/08/16 06:36:34;;;;;;;6.80;4.65;;;21.10;99.90;;;;;;5036422;28;20206;-84
2022/08/16 06:39:00;;;;;;;7.72;4.57;;;21.10;99.90;;;;;;5054078;28;20184;-84
2022/08/16 06:41:26;;;;;;;8.90;5.30;;;21.20;99.90;;;;;;5002928;28;20227;-84
2022/08/16 06:43:51;;;;;;;7.38;4.97;;;21.30;99.90;;;;;;5037617;28;20294;-84
2022/08/16 06:46:38;;;;;;;8.40;4.80;;;21.40;99.90;;;;;;5036320;28;20557;-84
2022/08/16 06:49:07;;;;;;;6.25;4.65;;;21.50;99.90;;;;;;5052264;28;20632;-84
2022/08/16 06:51:41;;;;;;;7.10;4.80;;;21.60;99.90;;;;;;5052386;28;20180;-85
2022/08/16 06:54:08;;;;;;;5.68;4.53;;;21.70;99.90;;;;;;5054872;28;20186;-84
2022/08/16 06:56:34;;;;;;;6.97;4.85;;;21.70;99.90;;;;;;5038965;28;20176;-85
2022/08/16 06:59:00;;;;;;;6.97;4.82;;;21.80;99.90;;;;;;5056481;28;20172;-86
2022/08/16 07:01:26;;;;;;;7.40;5.13;;;21.80;99.90;;;;;;5038777;28;20182;-85
2022/08/16 07:03:52;;;;;;;8.43;5.25;;;21.90;99.90;;;;;;5056718;28;20226;-84
2022/08/16 07:06:19;;;;;;;10.68;6.55;;;21.90;99.90;;;;;;5038877;28;20192;-84
2022/08/16 07:08:48;;;;;;;7.20;4.80;;;21.90;99.90;;;;;;5056456;28;20188;-85
2022/08/16 07:11:16;;;;;;;6.05;4.78;;;21.90;99.90;;;;;;5056535;28;20183;-85
2022/08/16 07:13:42;;;;;;;8.55;5.40;;;21.90;99.90;;;;;;5056494;28;20237;-85
2022/08/16 07:16:13;;;;;;;7.60;5.53;;;21.90;99.90;;;;;;5056486;28;20176;-85
2022/08/16 07:18:42;;;;;;;8.55;4.80;;;21.90;99.90;;;;;;5056509;28;20160;-85
2022/08/16 07:21:10;;;;;;;9.27;5.68;;;21.90;99.90;;;;;;5038450;28;20602;-84
2022/08/16 07:23:36;;;;;;;6.53;4.90;;;21.90;99.90;;;;;;5056361;28;20196;-84
2022/08/16 07:26:04;;;;;;;8.07;5.32;;;21.90;99.90;;;;;;5050504;28;20180;-85
2022/08/16 07:28:29;;;;;;;5.32;4.35;;;22.00;99.90;;;;;;5039256;28;20172;-84
2022/08/16 07:30:55;;;;;;;8.98;5.53;;;22.00;99.90;;;;;;5056997;28;20652;-86
2022/08/16 07:33:21;;;;;;;6.57;4.65;;;22.00;99.90;;;;;;5062024;28;20172;-84
2022/08/16 07:35:47;;;;;;;6.47;4.85;;;22.00;99.90;;;;;;5062999;28;20188;-85
2022/08/16 07:38:12;;;;;;;7.07;4.80;;;21.90;99.90;;;;;;5062738;28;20176;-84
2022/08/16 07:40:38;;;;;;;9.75;5.25;;;21.90;99.90;;;;;;5060440;28;20236;-85
2022/08/16 07:43:04;;;;;;;7.70;4.70;;;21.90;99.90;;;;;;5040244;28;20257;-84
2022/08/16 07:45:32;;;;;;;7.40;4.43;;;21.80;99.90;;;;;;5023041;28;20203;-86
2022/08/16 07:47:58;;;;;;;8.93;4.95;;;;;;;;;;5055481;28;20179;-85
2022/08/16 07:50:24;;;;;;;10.40;4.70;;;21.80;99.90;;;;;;5021122;28;20180;-84
2022/08/16 07:52:50;;;;;;;6.82;4.80;;;21.80;99.90;;;;;;5037549;28;20180;-84
2022/08/16 07:55:16;;;;;;;5.95;4.63;;;21.80;99.90;;;;;;5055443;28;20543;-85
2022/08/16 07:57:42;;;;;;;6.75;4.22;;;21.70;99.90;;;;;;5055305;28;20226;-84
2022/08/16 08:00:10;;;;;;;7.30;4.10;;;21.70;99.90;;;;;;5020833;28;20183;-84
2022/08/16 08:02:35;;;;;;;7.78;5.10;;;21.70;99.90;;;;;;5055054;28;20175;-85
2022/08/16 08:05:01;;;;;;;6.20;4.25;;;21.60;99.90;;;;;;5038801;28;20275;-84
2022/08/16 08:07:28;;;;;;;6.47;4.80;;;21.60;99.90;;;;;;5037652;28;20276;-87
2022/08/16 08:09:54;;;;;;;6.50;4.55;;;21.50;99.90;;;;;;5038053;28;20798;-85
2022/08/16 08:12:20;;;;;;;7.68;4.63;;;21.50;99.90;;;;;;5054639;28;20172;-85
2022/08/16 08:14:47;;;;;;;6.63;4.72;;;21.50;99.90;;;;;;5037272;28;20622;-85
2022/08/16 08:17:14;;;;;;;8.60;5.30;;;21.50;99.90;;;;;;5037316;28;20175;-86
2022/08/16 08:19:40;;;;;;;9.80;5.65;;;21.50;99.90;;;;;;5037237;28;20187;-86
2022/08/16 08:22:08;;;;;;;8.90;5.05;;;21.60;99.90;;;;;;5020646;28;20483;-85
2022/08/16 08:24:36;;;;;;;7.10;5.18;;;21.50;99.90;;;;;;5036770;28;20249;-86
2022/08/16 08:27:03;;;;;;;6.53;4.97;;;21.60;99.90;;;;;;5054525;28;20636;-86
2022/08/16 08:29:30;;;;;;;8.90;5.75;;;21.60;99.90;;;;;;5054557;28;20176;-86
2022/08/16 08:31:55;;;;;;;9.20;5.47;;;21.60;99.90;;;;;;5054623;28;20672;-84
2022/08/16 08:34:22;;;;;;;8.15;5.53;;;21.60;99.90;;;;;;5054473;28;20272;-86
2022/08/16 08:36:48;;;;;;;11.98;6.30;;;21.70;99.90;;;;;;5054857;28;20200;-84
2022/08/16 08:39:14;;;;;;;12.02;5.22;;;21.70;99.90;;;;;;5036896;28;20229;-85
2022/08/16 08:41:42;;;;;;;11.10;5.65;;;21.80;99.90;;;;;;5054051;28;20228;-85
2022/08/16 08:44:08;;;;;;;12.20;6.00;;;21.80;99.90;;;;;;5052694;28;20253;-84
2022/08/16 08:46:33;;;;;;;9.48;6.07;;;21.80;99.90;;;;;;5054801;28;20668;-85
2022/08/16 08:48:59;;;;;;;8.13;5.53;;;;;;;;;;5020312;28;20233;-86
2022/08/16 08:51:25;;;;;;;8.52;6.00;;;21.80;99.90;;;;;;5052581;28;20172;-87
2022/08/16 08:53:52;;;;;;;9.13;6.32;;;21.90;99.90;;;;;;5052315;28;20176;-85
2022/08/16 08:56:18;;;;;;;8.82;5.97;;;21.90;99.90;;;;;;5052581;28;20176;-85
2022/08/16 08:58:43;;;;;;;9.98;5.97;;;21.90;99.90;;;;;;5035264;28;20184;-84
2022/08/16 09:01:09;;;;;;;8.57;5.68;;;21.90;99.90;;;;;;5035598;28;20802;-84
2022/08/16 09:03:36;;;;;;;10.18;5.80;;;21.90;99.90;;;;;;5053456;28;20619;-83
2022/08/16 09:06:03;;;;;;;10.55;5.40;;;21.90;99.90;;;;;;5053548;28;20176;-85
2022/08/16 09:08:30;;;;;;;8.07;5.72;;;21.90;99.90;;;;;;5053270;28;20180;-84
2022/08/16 09:10:57;;;;;;;7.43;5.38;;;22.00;99.90;;;;;;5035519;28;20221;-86
2022/08/16 09:13:24;;;;;;;7.88;5.28;;;22.00;99.90;;;;;;5053166;28;20641;-85
2022/08/16 09:15:56;;;;;;;9.10;5.97;;;22.00;99.90;;;;;;5052880;28;20257;-84
2022/08/16 09:18:23;;;;;;;8.52;5.72;;;22.10;99.90;;;;;;5035550;28;20270;-84
2022/08/16 09:20:54;;;;;;;10.32;5.60;;;22.10;99.90;;;;;;5052899;28;20173;-84
2022/08/16 09:23:20;;;;;;;7.90;5.38;;;22.20;99.90;;;;;;5035974;28;20196;-84
2022/08/16 09:25:47;;;;;;;14.13;6.45;;;22.20;99.90;;;;;;5052831;28;20191;-84
2022/08/16 09:28:13;;;;;;;7.60;5.25;;;22.30;99.90;;;;;;5035034;28;20175;-85
2022/08/16 09:30:39;;;;;;;8.70;6.00;;;22.30;99.90;;;;;;5052900;28;20237;-84
2022/08/16 09:33:06;;;;;;;9.68;5.20;;;22.30;99.90;;;;;;5035330;28;20183;-85
2022/08/16 09:35:32;;;;;;;6.65;4.80;;;22.30;99.90;;;;;;5052857;28;20184;-85
2022/08/16 09:37:57;;;;;;;6.75;5.03;;;22.30;99.90;;;;;;5018674;28;20184;-85
2022/08/16 09:40:23;;;;;;;6.63;5.10;;;22.30;99.90;;;;;;5052616;28;20224;-85
2022/08/16 09:42:52;;;;;;;6.57;4.35;;;22.30;99.90;;;;;;5052663;28;20207;-84
2022/08/16 09:45:20;;;;;;;6.65;4.40;;;22.40;99.90;;;;;;5052488;28;20259;-85
2022/08/16 09:47:46;;;;;;;13.27;6.40;;;22.40;99.90;;;;;;5052651;28;20637;-84
2022/08/16 09:50:12;;;;;;;10.48;5.40;;;22.50;99.90;;;;;;5053003;28;20172;-85
2022/08/16 09:52:39;;;;;;;7.03;4.38;;;22.60;99.90;;;;;;5052391;28;20645;-85
2022/08/16 09:55:07;;;;;;;7.53;5.07;;;22.60;99.90;;;;;;5052089;28;20204;-84
2022/08/16 09:57:33;;;;;;;7.47;4.85;;;22.70;99.90;;;;;;5034654;28;20279;-85
2022/08/16 10:00:01;;;;;;;12.25;5.72;;;22.80;99.90;;;;;;5052166;28;20168;-85
2022/08/16 10:02:28;;;;;;;8.35;5.28;;;22.90;99.90;;;;;;5052451;28;20184;-85
2022/08/16 10:04:57;;;;;;;8.05;4.95;;;22.90;99.90;;;;;;5034674;28;20184;-85
2022/08/16 10:07:25;;;;;;;6.35;4.60;;;23.00;99.90;;;;;;5052562;28;20180;-85
2022/08/16 10:09:51;;;;;;;7.00;4.60;;;23.10;99.90;;;;;;5052752;28;20172;-85
2022/08/16 10:15:00;;;;;;;5.97;3.97;;;23.20;99.90;;;;;;5053077;28;20163;-83
2022/08/16 10:17:26;;;;;;;7.72;4.60;;;23.30;99.90;;;;;;5035249;28;20199;-84
2022/08/16 10:19:54;;;;;;;9.38;4.70;;;23.40;99.90;;;;;;5034822;28;20199;-83
2022/08/16 10:22:20;;;;;;;6.60;4.57;;;23.40;99.90;;;;;;5035329;28;20244;-85
2022/08/16 10:24:45;;;;;;;13.20;6.68;;;23.50;99.90;;;;;;5034839;28;20242;-86
2022/08/16 10:27:11;;;;;;;7.30;4.63;;;23.60;99.90;;;;;;5052674;28;20180;-85
2022/08/16 10:29:37;;;;;;;7.55;3.97;;;23.60;99.90;;;;;;5051706;28;20182;-85
2022/08/16 10:32:03;;;;;;;6.07;3.75;;;23.70;99.90;;;;;;5052837;28;20258;-84
2022/08/16 10:34:29;;;;;;;13.23;4.43;;;23.90;99.90;;;;;;5053021;28;20698;-84
2022/08/16 10:36:55;;;;;;;5.70;3.85;;;24.20;99.90;;;;;;5053087;28;20180;-83
2022/08/16 10:39:21;;;;;;;5.38;4.05;;;24.40;99.90;;;;;;5035544;28;20215;-84
2022/08/16 10:41:46;;;;;;;6.50;4.13;;;24.50;99.90;;;;;;5052100;28;20305;-83
2022/08/16 10:44:13;;;;;;;6.78;4.28;;;24.60;99.90;;;;;;5035371;28;20200;-84
2022/08/16 10:46:40;;;;;;;5.50;3.95;;;24.70;99.90;;;;;;5053307;28;20180;-85
2022/08/16 10:49:06;;;;;;;7.10;4.22;;;24.70;99.90;;;;;;5052908;28;20271;-84
2022/08/16 10:51:32;;;;;;;8.30;4.30;;;24.70;99.90;;;;;;5035206;28;20606;-84
2022/08/16 10:53:58;;;;;;;6.32;3.78;;;24.70;99.90;;;;;;5052668;28;20183;-84
2022/08/16 10:56:25;;;;;;;5.47;3.95;;;24.80;99.90;;;;;;5036198;28;20218;-83
2022/08/16 10:58:51;;;;;;;10.00;4.43;;;24.70;99.90;;;;;;5036141;28;20184;-84
2022/08/16 11:01:17;;;;;;;6.35;3.88;;;24.80;99.90;;;;;;5054159;28;20180;-83
2022/08/16 11:03:43;;;;;;;4.82;3.15;;;24.80;99.90;;;;;;5004127;28;20226;-85
2022/08/16 11:06:09;;;;;;;7.15;3.42;;;24.70;99.90;;;;;;5036307;28;20184;-83
2022/08/16 11:08:36;;;;;;;7.07;4.53;;;24.70;99.90;;;;;;5054652;28;20191;-83
2022/08/16 11:11:04;;;;;;;6.43;3.92;;;24.70;99.90;;;;;;5036148;28;20175;-84
2022/08/16 11:13:30;;;;;;;8.65;4.60;;;24.40;99.90;;;;;;5053418;28;20172;-84
2022/08/16 11:15:56;;;;;;;6.00;3.78;;;24.30;99.90;;;;;;5053143;28;20621;-84
2022/08/16 11:18:22;;;;;;;11.50;5.53;;;24.20;99.90;;;;;;5002683;28;20183;-84
2022/08/16 11:20:48;;;;;;;6.30;3.97;;;24.10;99.90;;;;;;5035093;28;20219;-84
2022/08/16 11:23:14;;;;;;;5.00;3.75;;;24.00;99.90;;;;;;5052578;28;20239;-84
2022/08/16 11:25:39;;;;;;;7.80;4.38;;;24.00;99.90;;;;;;5035560;28;20211;-84
2022/08/16 11:28:06;;;;;;;6.10;3.95;;;23.90;99.90;;;;;;5035405;28;20183;-85
2022/08/16 11:30:33;;;;;;;4.93;3.67;;;23.90;99.90;;;;;;5053284;28;20180;-85
2022/08/16 11:33:00;;;;;;;6.45;4.32;;;24.00;99.90;;;;;;5052852;28;20172;-86
2022/08/16 11:35:28;;;;;;;6.25;4.60;;;24.30;99.90;;;;;;5053235;28;20238;-85
2022/08/16 11:38:01;;;;;;;4.88;3.97;;;24.60;99.90;;;;;;5053070;28;20179;-85
2022/08/16 11:40:32;;;;;;;7.57;4.35;;;24.80;99.90;;;;;;5035044;28;20747;-85
2022/08/16 11:42:57;;;;;;;6.25;3.88;;;25.00;99.90;;;;;;5056265;28;20208;-84
2022/08/16 11:45:23;;;;;;;9.27;4.55;;;25.10;99.90;;;;;;5056551;28;20184;-84
2022/08/16 11:47:49;;;;;;;8.70;4.70;;;25.40;99.90;;;;;;5038430;28;20254;-85
2022/08/16 11:50:15;;;;;;;6.30;4.10;;;25.70;99.90;;;;;;5038146;28;20186;-84
2022/08/16 11:52:41;;;;;;;5.07;4.22;;;25.80;99.90;;;;;;5055875;28;20171;-84
2022/08/16 11:55:11;;;;;;;7.15;4.63;;;25.70;99.90;;;;;;5038309;28;20279;-84
2022/08/16 11:57:37;;;;;;;6.15;4.28;;;25.80;99.90;;;;;;5056804;28;20644;-84
2022/08/16 12:00:10;;;;;;;4.93;3.70;;;25.80;99.90;;;;;;5037993;28;20215;-84
2022/08/16 12:02:37;;;;;;;5.18;3.80;;;25.90;99.90;;;;;;5037913;28;20621;-85
2022/08/16 12:05:04;;;;;;;6.65;4.10;;;25.90;99.90;;;;;;5038198;28;20184;-84
2022/08/16 12:07:30;;;;;;;7.07;4.25;;;25.90;99.90;;;;;;5055808;28;20172;-85
2022/08/16 12:09:56;;;;;;;5.53;4.10;;;26.10;99.90;;;;;;5055425;28;20183;-85
2022/08/16 12:12:23;;;;;;;5.22;3.83;;;26.50;99.90;;;;;;5037690;28;20187;-87
2022/08/16 12:14:49;;;;;;;6.13;4.53;;;;;;;;;;5038620;28;20180;-86
2022/08/16 12:17:15;;;;;;;4.82;3.63;;;;;;;;;;5057245;28;20195;-85
2022/08/16 12:19:41;;;;;;;6.03;4.18;;;27.40;99.90;;;;;;5058604;28;20184;-84
2022/08/16 12:22:07;;;;;;;5.93;3.65;;;27.00;99.90;;;;;;5062178;28;20180;-84
2022/08/16 12:24:33;;;;;;;6.47;4.13;;;;;;;;;;5057492;28;20279;-85
2022/08/16 12:26:59;;;;;;;4.10;3.10;;;;;;;;;;5039260;28;20180;-84
2022/08/16 12:29:25;;;;;;;5.13;3.42;;;;;;;;;;5055592;28;20656;-85
2022/08/16 12:31:51;;;;;;;5.50;3.88;;;;;;;;;;5038476;28;20191;-87
2022/08/16 12:34:18;;;;;;;5.88;3.67;;;26.60;99.90;;;;;;5058059;28;20243;-85
2022/08/16 12:36:45;;;;;;;4.57;3.45;;;;;;;;;;5056325;28;20180;-85
2022/08/16 12:39:12;;;;;;;4.22;3.00;;;26.80;99.90;;;;;;5055290;28;20184;-86
2022/08/16 12:41:38;;;;;;;4.35;3.42;;;;;;;;;;5054000;28;20227;-86
2022/08/16 12:44:05;;;;;;;6.90;3.58;;;26.90;99.90;;;;;;5036444;28;20721;-85
2022/08/16 12:46:32;;;;;;;4.95;3.20;;;26.80;99.90;;;;;;5036796;28;20215;-85
2022/08/16 12:48:59;;;;;;;4.53;3.53;;;26.70;99.90;;;;;;5036975;28;20211;-86
2022/08/16 12:51:35;;;;;;;8.20;4.47;;;26.70;99.90;;;;;;5054499;28;20180;-85
2022/08/16 12:54:03;;;;;;;4.57;3.58;;;26.70;99.90;;;;;;5036723;28;20179;-85